Time;durP1;ratioP1;P1;durP2;ratioP2;P2;SDS_P1;SDS_P2;PMS_P1;PMS_P2;Temp;Humidity;BMP_temperature;BMP_pressure;BME280_temperature;BME280_humidity;BME280_pressure;Samples;Min_cycle;Max_cycle;Signal;HPM_P1;HPM_P2
2022/07/04 00:03:15;;;;;;;12.05;8.30;;;;;;;;;;5111229;27;20451;-72
2022/07/04 00:05:42;;;;;;;10.63;7.75;;;;;;;;;;5111741;28;20106;-72
2022/07/04 00:08:08;;;;;;;10.48;7.40;;;;;;;;;;5111156;28;20361;-73
2022/07/04 00:10:34;;;;;;;9.88;7.20;;;;;;;;;;5110965;28;20028;-73
2022/07/04 00:13:00;;;;;;;13.30;8.13;;;;;;;;;;5110987;28;20030;-72
2022/07/04 00:17:04;;;;;;;10.52;7.55;;;;;;;;;;5111003;27;20426;-73
2022/07/04 00:19:30;;;;;;;12.57;8.70;;;;;;;;;;5111362;28;20028;-72
2022/07/04 00:21:56;;;;;;;11.25;8.45;;;;;;;;;;5111309;28;20069;-72
2022/07/04 00:24:22;;;;;;;10.43;7.55;;;;;;;;;;5110969;28;20024;-72
2022/07/04 00:31:14;;;;;;;8.32;6.32;;;;;;;;;;5111230;27;20473;-72
2022/07/04 00:33:40;;;;;;;10.50;6.43;;;;;;;;;;5111301;28;20031;-72
2022/07/04 00:36:07;;;;;;;11.10;6.32;;;;;;;;;;5111298;28;20051;-72
2022/07/04 00:38:33;;;;;;;9.02;6.32;;;;;;;;;;5110872;28;20020;-73
2022/07/04 00:43:32;;;;;;;9.48;5.93;;;;;;;;;;5111766;27;20726;-72
2022/07/04 00:50:20;;;;;;;9.32;5.95;;;;;;;;;;5111158;27;20409;-72
2022/07/04 00:52:46;;;;;;;8.25;5.75;;;;;;;;;;5111127;28;20107;-72
2022/07/04 00:56:44;;;;;;;8.77;5.93;;;;;;;;;;5111322;27;20471;-72
2022/07/04 01:00:20;;;;;;;10.77;6.82;;;;;;;;;;5111227;27;20993;-72
2022/07/04 01:03:01;;;;;;;9.55;6.43;;;;;;;;;;5112307;27;20412;-72
2022/07/04 01:05:27;;;;;;;9.18;5.68;;;;;;;;;;5111356;28;20451;-72
2022/07/04 01:07:53;;;;;;;10.80;7.00;;;;;;;;;;5110883;28;20027;-72
2022/07/04 01:10:19;;;;;;;9.38;6.45;;;;;;;;;;5111162;28;20051;-72
2022/07/04 01:12:46;;;;;;;9.52;6.60;;;;;;;;;;5111177;28;20024;-71
2022/07/04 01:15:12;;;;;;;8.68;6.35;;;;;;;;;;5110690;28;20089;-71
2022/07/04 01:17:38;;;;;;;8.65;6.75;;;;;;;;;;5111180;28;20111;-72
2022/07/04 01:20:04;;;;;;;8.70;6.03;;;;;;;;;;5110667;28;20012;-72
2022/07/04 01:27:10;;;;;;;9.52;6.22;;;;;;;;;;5111589;27;20458;-72
2022/07/04 01:31:03;;;;;;;10.45;6.70;;;;;;;;;;5111958;27;20419;-72
2022/07/04 01:33:29;;;;;;;10.50;6.38;;;;;;;;;;5111898;28;20020;-72
2022/07/04 01:35:55;;;;;;;10.95;6.03;;;;;;;;;;5111032;28;20069;-73
2022/07/04 01:38:22;;;;;;;8.15;5.65;;;;;;;;;;5111318;28;20031;-73
2022/07/04 01:40:48;;;;;;;10.25;5.95;;;;;;;;;;5111384;28;20028;-72
2022/07/04 01:43:14;;;;;;;9.23;6.40;;;;;;;;;;5110747;28;20016;-72
2022/07/04 01:45:40;;;;;;;8.75;6.13;;;;;;;;;;5111074;28;20020;-72
2022/07/04 01:50:16;;;;;;;7.63;5.07;;;;;;;;;;5110869;27;20791;-72
2022/07/04 01:52:42;;;;;;;8.40;6.00;;;;;;;;;;5111340;28;20043;-71
2022/07/04 01:55:09;;;;;;;9.30;6.10;;;;;;;;;;5110903;28;20023;-72
2022/07/04 01:58:39;;;;;;;9.60;5.55;;;;;;;;;;5111804;27;20422;-72
2022/07/04 02:03:45;;;;;;;9.57;6.63;;;;;;;;;;5111108;27;20426;-73
2022/07/04 02:06:23;;;;;;;10.70;6.70;;;;;;;;;;5111742;27;20381;-72
2022/07/04 02:13:00;;;;;;;8.00;5.28;;;;;;;;;;5110949;27;20393;-71
2022/07/04 02:15:38;;;;;;;8.43;5.53;;;;;;;;;;5112161;27;20961;-72
2022/07/04 02:18:04;;;;;;;10.98;5.63;;;;;;;;;;5111003;28;20020;-73
2022/07/04 02:20:52;;;;;;;7.88;5.68;;;;;;;;;;5111886;27;20381;-71
2022/07/04 02:23:18;;;;;;;10.25;5.72;;;;;;;;;;5109712;28;20448;-72
2022/07/04 02:25:44;;;;;;;8.70;5.93;;;;;;;;;;5110068;28;20476;-71
2022/07/04 02:28:11;;;;;;;10.10;6.60;;;;;;;;;;5110270;28;20541;-71
2022/07/04 02:30:37;;;;;;;7.72;5.28;;;;;;;;;;5110906;28;20073;-71
2022/07/04 02:33:57;;;;;;;9.95;6.60;;;;;;;;;;5112029;27;20396;-71
2022/07/04 02:36:23;;;;;;;13.18;6.72;;;;;;;;;;5111350;28;20081;-72
2022/07/04 02:38:49;;;;;;;10.70;7.05;;;;;;;;;;5109394;28;20027;-73
2022/07/04 02:42:37;;;;;;;10.45;7.20;;;;;;;;;;5112030;27;20490;-72
2022/07/04 02:45:04;;;;;;;12.07;8.07;;;;;;;;;;5110765;28;20032;-72
2022/07/04 02:47:30;;;;;;;12.25;7.13;;;;;;;;;;5111165;28;20027;-72
2022/07/04 02:49:56;;;;;;;9.55;7.80;;;;;;;;;;5111082;28;20016;-72
2022/07/04 02:53:15;;;;;;;10.07;7.32;;;;;;;;;;5111183;27;20445;-71
2022/07/04 02:55:41;;;;;;;9.68;7.15;;;;;;;;;;5111343;28;20028;-71
2022/07/04 02:58:37;;;;;;;11.70;7.30;;;;;;;;;;5111286;27;20954;-71
2022/07/04 03:01:04;;;;;;;11.95;7.13;;;;;;;;;;5111279;28;20024;-72
2022/07/04 03:03:30;;;;;;;7.82;5.70;;;;;;;;;;5111309;28;20020;-72
2022/07/04 03:08:59;;;;;;;12.13;6.90;;;;;;;;;;5112132;27;20401;-72
2022/07/04 03:11:25;;;;;;;9.95;6.72;;;;;;;;;;5111405;28;20024;-72
2022/07/04 03:15:54;;;;;;;9.55;6.68;;;;;;;;;;5112143;27;20397;-72
2022/07/04 03:18:21;;;;;;;10.40;7.00;;;;;;;;;;5111369;28;20028;-72
2022/07/04 03:21:13;;;;;;;10.95;7.28;;;;;;;;;;5111168;27;20458;-72
2022/07/04 03:25:02;;;;;;;12.90;7.38;;;;;;;;;;5112063;27;20448;-72
2022/07/04 03:29:42;;;;;;;10.43;7.30;;;;;;;;;;5111471;27;20419;-72
2022/07/04 03:32:56;;;;;;;9.57;6.90;;;;;;;;;;5111299;27;20314;-72
2022/07/04 03:35:53;;;;;;;9.50;6.78;;;;;;;;;;5111617;27;20480;-72
2022/07/04 03:38:19;;;;;;;9.68;6.55;;;;;;;;;;5111377;28;20019;-72
2022/07/04 03:41:36;;;;;;;8.82;6.47;;;;;;;;;;5111192;27;20457;-72
2022/07/04 03:44:02;;;;;;;11.07;6.72;;;;;;;;;;5111357;28;20028;-73
2022/07/04 03:46:28;;;;;;;9.43;6.30;;;;;;;;;;5111509;28;20058;-72
2022/07/04 03:48:55;;;;;;;8.50;5.72;;;;;;;;;;5110875;28;20020;-72
2022/07/04 03:51:22;;;;;;;9.95;6.50;;;;;;;;;;5109971;28;20024;-73
2022/07/04 03:53:48;;;;;;;8.40;6.15;;;;;;;;;;5111256;28;20020;-73
2022/07/04 03:56:15;;;;;;;10.15;7.03;;;;;;;;;;5110786;28;20028;-73
2022/07/04 04:00:18;;;;;;;9.80;6.43;;;;;;;;;;5111573;27;20753;-72
2022/07/04 04:02:44;;;;;;;10.77;7.60;;;;;;;;;;5126766;28;20024;-72
2022/07/04 04:05:36;;;;;;;9.68;6.65;;;;;;;;;;5111545;27;20430;-72
2022/07/04 04:08:02;;;;;;;14.43;6.97;;;;;;;;;;5111319;28;20506;-72
2022/07/04 04:12:02;;;;;;;12.95;7.90;;;;;;;;;;5111525;27;20396;-72
2022/07/04 04:14:28;;;;;;;13.35;9.15;;;;;;;;;;5111317;28;20062;-72
2022/07/04 04:16:54;;;;;;;13.93;9.20;;;;;;;;;;5110998;28;20096;-72
2022/07/04 04:20:40;;;;;;;16.40;9.68;;;;;;;;;;5111527;27;20477;-72
2022/07/04 04:24:22;;;;;;;12.00;8.15;;;;;;;;;;5111246;27;20397;-73
2022/07/04 04:26:48;;;;;;;11.40;8.02;;;;;;;;;;5111421;28;20030;-73
2022/07/04 04:29:14;;;;;;;12.98;8.82;;;;;;;;;;5111299;28;20023;-73
2022/07/04 04:31:40;;;;;;;14.65;8.85;;;;;;;;;;5109680;28;20570;-73
2022/07/04 04:34:07;;;;;;;11.15;7.95;;;;;;;;;;5109906;28;20038;-74
2022/07/04 04:36:33;;;;;;;12.18;8.23;;;;;;;;;;5109897;28;20027;-73
2022/07/04 04:38:59;;;;;;;12.57;7.70;;;;;;;;;;5109432;28;20047;-73
2022/07/04 04:41:26;;;;;;;10.90;7.57;;;;;;;;;;5109801;28;20054;-74
2022/07/04 04:43:52;;;;;;;11.05;8.00;;;;;;;;;;5110571;28;20032;-73
2022/07/04 04:50:22;;;;;;;9.65;6.90;;;;;;;;;;5092072;27;20477;-72
2022/07/04 04:56:01;;;;;;;14.07;8.13;;;;;;;;;;5132059;27;20122;-72
2022/07/04 04:58:28;;;;;;;14.10;9.40;;;;;;;;;;5110860;28;20023;-72
2022/07/04 05:10:44;;;;;;;12.45;7.30;;;;;;;;;;5111578;27;20424;-78
2022/07/04 05:13:10;;;;;;;10.35;6.53;;;;;;;;;;5110907;28;20051;-78
2022/07/04 05:15:36;;;;;;;9.48;6.53;;;;;;;;;;5111400;28;20028;-79
2022/07/04 05:18:02;;;;;;;10.60;7.05;;;;;;;;;;5111006;28;20043;-78
2022/07/04 05:20:28;;;;;;;8.68;6.00;;;;;;;;;;5110791;28;20468;-79
2022/07/04 05:22:55;;;;;;;9.07;6.57;;;;;;;;;;5126976;28;20028;-78
2022/07/04 05:25:21;;;;;;;14.32;6.97;;;;;;;;;;5126555;28;20027;-81
2022/07/04 05:27:47;;;;;;;9.05;6.43;;;;;;;;;;5127918;28;20027;-82
2022/07/04 05:30:13;;;;;;;8.55;6.32;;;;;;;;;;5095324;28;20041;-73
2022/07/04 05:32:40;;;;;;;10.05;6.95;;;;;;;;;;5099934;28;20024;-73
2022/07/04 05:37:43;;;;;;;9.27;6.22;;;;;;;;;;5111273;27;20389;-71
2022/07/04 05:40:10;;;;;;;8.07;5.93;;;;;;;;;;5109312;28;20391;-74
2022/07/04 05:42:36;;;;;;;11.82;7.70;;;;;;;;;;5111200;28;20476;-72
2022/07/04 05:45:03;;;;;;;9.95;7.00;;;;;;;;;;5110980;28;20496;-74
2022/07/04 05:47:29;;;;;;;9.05;7.13;;;;;;;;;;5109285;28;20055;-72
2022/07/04 05:49:56;;;;;;;11.68;7.72;;;;;;;;;;5110672;28;20047;-72
2022/07/04 05:52:22;;;;;;;9.38;6.22;;;;;;;;;;5109543;28;20027;-73
2022/07/04 05:54:49;;;;;;;8.32;5.43;;;;;;;;;;5110476;28;20027;-72
2022/07/04 05:57:33;;;;;;;10.63;6.45;;;;;;;;;;5090738;28;20417;-73
2022/07/04 06:02:53;;;;;;;11.32;8.10;;;;;;;;;;5111059;27;20393;-74
2022/07/04 06:05:19;;;;;;;10.18;7.13;;;;;;;;;;5111208;28;20383;-76
2022/07/04 06:07:48;;;;;;;10.75;6.47;;;;;;;;;;5093823;28;20028;-74
2022/07/04 06:10:14;;;;;;;9.35;6.78;;;;;;;;;;5106269;28;20094;-72
2022/07/04 06:12:40;;;;;;;11.82;6.80;;;;;;;;;;5110732;28;20097;-73
2022/07/04 06:15:09;;;;;;;10.93;6.90;;;;;;;;;;5108825;28;20054;-73
2022/07/04 06:18:41;;;;;;;7.88;5.68;;;;;;;;;;5104297;27;20421;-74
2022/07/04 06:21:07;;;;;;;11.10;6.82;;;;;;;;;;5101730;28;20099;-72
2022/07/04 06:23:33;;;;;;;9.75;6.63;;;;;;;;;;5108478;28;20082;-73
2022/07/04 06:25:59;;;;;;;10.32;6.70;;;;;;;;;;5109072;28;20027;-74
2022/07/04 06:28:25;;;;;;;8.65;5.97;;;;;;;;;;5108448;28;20499;-73
2022/07/04 06:30:52;;;;;;;12.02;7.03;;;;;;;;;;5108866;28;20484;-74
2022/07/04 06:33:18;;;;;;;9.52;7.03;;;;;;;;;;5108273;28;20020;-70
2022/07/04 06:35:45;;;;;;;8.15;6.22;;;;;;;;;;5108431;28;20036;-74
2022/07/04 06:38:11;;;;;;;9.60;6.65;;;;;;;;;;5108410;28;20123;-75
2022/07/04 06:40:38;;;;;;;8.48;6.43;;;;;;;;;;5109922;28;20095;-74
2022/07/04 06:43:04;;;;;;;10.05;7.30;;;;;;;;;;5110410;28;20016;-73
2022/07/04 06:45:31;;;;;;;11.65;6.40;;;;;;;;;;5110250;28;20031;-72
2022/07/04 06:47:57;;;;;;;9.25;6.72;;;;;;;;;;5110547;28;20462;-74
2022/07/04 06:51:55;;;;;;;11.20;7.45;;;;;;;;;;5110909;27;20442;-73
2022/07/04 06:56:53;;;;;;;11.43;7.47;;;;;;;;;;5110679;27;20393;-72
2022/07/04 06:59:19;;;;;;;10.80;7.03;;;;;;;;;;5090064;28;20086;-72
2022/07/04 07:01:45;;;;;;;9.60;6.80;;;;;;;;;;5092541;28;20020;-71
2022/07/04 07:04:11;;;;;;;8.80;6.70;;;;;;;;;;5090492;28;20056;-75
2022/07/04 07:06:37;;;;;;;8.77;6.28;;;;;;;;;;5076776;28;20048;-71
2022/07/04 07:09:04;;;;;;;9.07;6.15;;;;;;;;;;5078965;28;20024;-72
2022/07/04 07:12:54;;;;;;;9.13;6.53;;;;;;;;;;5108833;27;20984;-72
2022/07/04 07:15:20;;;;;;;9.52;6.88;;;;;;;;;;5119785;28;20023;-71
2022/07/04 07:17:47;;;;;;;7.25;5.50;;;;;;;;;;5106705;28;20028;-73
2022/07/04 07:20:13;;;;;;;8.77;6.30;;;;;;;;;;5118579;28;20140;-72
2022/07/04 07:22:41;;;;;;;7.80;5.57;;;;;;;;;;5109551;28;20406;-72
2022/07/04 07:27:06;;;;;;;7.70;5.28;;;;;;;;;;5108129;27;20482;-71
2022/07/04 07:29:32;;;;;;;8.70;5.82;;;;;;;;;;5095301;28;20021;-70
2022/07/04 07:31:59;;;;;;;9.60;6.53;;;;;;;;;;5089655;28;20036;-72
2022/07/04 07:34:25;;;;;;;10.35;6.85;;;;;;;;;;5088886;28;20480;-70
2022/07/04 07:36:51;;;;;;;10.32;6.82;;;;;;;;;;5090119;28;20099;-72
2022/07/04 07:39:17;;;;;;;8.93;6.57;;;;;;;;;;5087419;28;20461;-71
2022/07/04 07:43:49;;;;;;;8.48;5.97;;;;;;;;;;5109343;27;20396;-70
2022/07/04 07:46:15;;;;;;;8.60;6.25;;;;;;;;;;5109895;28;20028;-71
2022/07/04 07:48:41;;;;;;;9.20;6.97;;;;;;;;;;5108872;28;20020;-69
2022/07/04 07:51:10;;;;;;;8.68;6.55;;;;;;;;;;5109737;28;20122;-70
2022/07/04 07:53:36;;;;;;;8.15;5.93;;;;;;;;;;5107426;28;20024;-74
2022/07/04 07:56:02;;;;;;;9.52;6.22;;;;;;;;;;5109362;28;20027;-69
2022/07/04 07:58:28;;;;;;;11.35;6.10;;;;;;;;;;5108438;28;20024;-70
2022/07/04 08:00:55;;;;;;;8.90;6.05;;;;;;;;;;5107523;28;20076;-72
2022/07/04 08:06:05;;;;;;;9.23;5.97;;;;;;;;;;5109165;28;20066;-72
2022/07/04 08:08:32;;;;;;;9.25;5.55;;;;;;;;;;5109737;28;20479;-71
2022/07/04 08:10:58;;;;;;;8.88;6.25;;;;;;;;;;5109441;28;20060;-72
2022/07/04 08:13:24;;;;;;;8.30;5.80;;;;;;;;;;5105125;28;20031;-72
2022/07/04 08:15:50;;;;;;;8.60;6.25;;;;;;;;;;5106808;28;20032;-72
2022/07/04 08:18:17;;;;;;;8.00;5.30;;;;;;;;;;5108094;28;20031;-73
2022/07/04 08:20:44;;;;;;;7.38;5.70;;;;;;;;;;5107779;28;20153;-70
2022/07/04 08:23:10;;;;;;;9.05;5.75;;;;;;;;;;5106837;28;20040;-70
2022/07/04 08:25:36;;;;;;;8.75;5.68;;;;;;;;;;5107780;28;20020;-75
2022/07/04 08:28:02;;;;;;;9.20;5.20;;;;;;;;;;5107827;28;20024;-71
2022/07/04 08:30:28;;;;;;;10.13;6.80;;;;;;;;;;5107234;28;20064;-71
2022/07/04 08:32:54;;;;;;;8.23;5.53;;;;;;;;;;5106796;28;20562;-72
2022/07/04 08:35:21;;;;;;;9.63;5.72;;;;;;;;;;5091719;28;20025;-70
2022/07/04 08:37:49;;;;;;;10.02;5.60;;;;;;;;;;5086735;28;20025;-73
2022/07/04 08:40:15;;;;;;;8.40;5.15;;;;;;;;;;5107386;28;20039;-72
2022/07/04 08:42:41;;;;;;;9.52;5.60;;;;;;;;;;5109499;28;20087;-71
2022/07/04 08:45:08;;;;;;;7.57;5.43;;;;;;;;;;5109522;28;20491;-76
2022/07/04 08:47:35;;;;;;;6.60;5.30;;;;;;;;;;5107946;28;20400;-75
2022/07/04 08:50:04;;;;;;;7.28;5.20;;;;;;;;;;5108754;28;20055;-73
2022/07/04 08:52:40;;;;;;;10.13;6.00;;;;;;;;;;5111115;28;20386;-73
2022/07/04 09:00:38;;;;;;;8.55;5.90;;;;;;;;;;5085516;28;20110;-73
2022/07/04 09:03:05;;;;;;;7.20;5.25;;;;;;;;;;5093461;28;20043;-74
2022/07/04 09:05:32;;;;;;;8.10;5.18;;;;;;;;;;5092321;28;20020;-75
2022/07/04 09:07:58;;;;;;;10.15;5.45;;;;;;;;;;5093031;28;20039;-74
2022/07/04 09:10:25;;;;;;;9.13;5.13;;;;;;;;;;5092284;28;20476;-75
2022/07/04 09:12:51;;;;;;;7.90;5.40;;;;;;;;;;5094364;28;20036;-73
2022/07/04 09:15:17;;;;;;;7.63;5.15;;;;;;;;;;5094088;28;20025;-75
2022/07/04 09:17:44;;;;;;;7.55;5.35;;;;;;;;;;5094333;28;20024;-75
2022/07/04 09:20:17;;;;;;;8.77;5.78;;;;;;;;;;5094566;28;20024;-74
2022/07/04 09:22:43;;;;;;;7.68;5.07;;;;;;;;;;5095072;28;20032;-74
2022/07/04 09:25:12;;;;;;;7.60;5.18;;;;;;;;;;5092505;28;20023;-74
2022/07/04 09:27:40;;;;;;;8.07;5.47;;;;;;;;;;5093999;28;20028;-74
2022/07/04 09:30:07;;;;;;;8.93;5.32;;;;;;;;;;5093877;28;20388;-75
2022/07/04 09:32:53;;;;;;;8.63;5.00;;;;;;;;;;5088174;28;20541;-75
2022/07/04 09:35:23;;;;;;;7.25;4.95;;;;;;;;;;5088508;28;20038;-75
2022/07/04 09:37:51;;;;;;;6.72;4.50;;;;;;;;;;5091375;28;20047;-74
2022/07/04 09:40:25;;;;;;;9.60;5.20;;;;;;;;;;5087903;28;20035;-76
2022/07/04 09:42:51;;;;;;;8.40;5.32;;;;;;;;;;5087643;28;20040;-75
2022/07/04 09:45:19;;;;;;;7.50;5.28;;;;;;;;;;5088488;28;20392;-76
2022/07/04 09:47:46;;;;;;;6.57;4.72;;;;;;;;;;5088982;28;20106;-75
2022/07/04 09:50:13;;;;;;;9.93;5.32;;;;;;;;;;5088274;28;20444;-75
2022/07/04 09:52:48;;;;;;;8.30;5.35;;;;;;;;;;5091974;28;20032;-75
2022/07/04 09:55:20;;;;;;;8.60;5.20;;;;;;;;;;5090849;28;20020;-76
2022/07/04 09:57:46;;;;;;;;;;;;;;;;;;5095011;28;20024;-74
2022/07/04 10:00:19;;;;;;;9.25;4.97;;;;;;;;;;5092845;28;20282;-75
2022/07/04 10:02:46;;;;;;;7.88;4.43;;;;;;;;;;5094667;28;20036;-75
2022/07/04 10:05:12;;;;;;;7.50;5.00;;;;;;;;;;5086649;28;20052;-76
2022/07/04 10:07:48;;;;;;;6.55;4.70;;;;;;;;;;5079218;28;20107;-74
2022/07/04 10:10:34;;;;;;;8.13;4.78;;;;;;;;;;5069317;28;20078;-74
2022/07/04 10:13:07;;;;;;;6.97;4.80;;;;;;;;;;5068882;28;20158;-73
2022/07/04 10:15:36;;;;;;;6.57;4.50;;;;;;;;;;5070478;28;20028;-74
2022/07/04 10:18:03;;;;;;;6.93;4.93;;;;;;;;;;5071828;28;20066;-75
2022/07/04 10:20:29;;;;;;;6.00;4.38;;;;;;;;;;5072455;28;20540;-75
2022/07/04 10:22:56;;;;;;;6.88;4.78;;;;;;;;;;5075479;28;20545;-74
2022/07/04 10:25:22;;;;;;;6.40;4.60;;;;;;;;;;5083268;28;20384;-74
2022/07/04 10:27:51;;;;;;;7.75;4.15;;;;;;;;;;5074692;28;20110;-75
2022/07/04 10:30:20;;;;;;;10.05;4.45;;;;;;;;;;5087840;28;20567;-73
2022/07/04 10:32:47;;;;;;;6.45;4.50;;;;;;;;;;5080774;28;20025;-75
2022/07/04 10:35:14;;;;;;;6.32;4.30;;;;;;;;;;5093331;28;20419;-76
2022/07/04 10:38:00;;;;;;;8.43;4.35;;;;;;;;;;5094114;28;20035;-76
2022/07/04 10:40:40;;;;;;;5.93;4.50;;;;;;;;;;5094445;28;20532;-75
2022/07/04 10:46:19;;;;;;;7.43;4.07;;;;;;;;;;5094223;28;20020;-76
2022/07/04 10:49:04;;;;;;;10.68;5.40;;;;;;;;;;5080828;28;20401;-74
2022/07/04 10:51:37;;;;;;;6.32;4.35;;;;;;;;;;5093731;28;20036;-73
2022/07/04 10:54:05;;;;;;;8.27;4.78;;;;;;;;;;5094041;28;20016;-75
2022/07/04 10:56:35;;;;;;;6.13;3.88;;;;;;;;;;5093696;28;20028;-73
2022/07/04 10:59:08;;;;;;;6.18;4.05;;;;;;;;;;5092811;28;20016;-73
2022/07/04 11:01:34;;;;;;;6.40;4.40;;;;;;;;;;5094075;28;20035;-74
2022/07/04 11:04:00;;;;;;;6.85;4.50;;;;;;;;;;5093481;28;20028;-73
2022/07/04 11:06:36;;;;;;;6.50;4.18;;;;;;;;;;5092625;28;20403;-74
2022/07/04 11:09:14;;;;;;;5.35;3.72;;;;;;;;;;5093907;28;20488;-74
2022/07/04 11:11:59;;;;;;;5.95;4.22;;;;;;;;;;5093420;28;20107;-72
2022/07/04 11:14:32;;;;;;;6.55;4.38;;;;;;;;;;5093706;28;20024;-73
2022/07/04 11:16:58;;;;;;;5.32;3.90;;;;;;;;;;5086497;28;20020;-73
2022/07/04 11:19:24;;;;;;;6.15;3.70;;;;;;;;;;5076914;28;20499;-74
2022/07/04 11:21:51;;;;;;;7.25;4.30;;;;;;;;;;5073293;28;20029;-73
2022/07/04 11:24:17;;;;;;;6.05;3.92;;;;;;;;;;5073426;28;20065;-71
2022/07/04 11:26:43;;;;;;;6.65;4.35;;;;;;;;;;5071750;28;20017;-73
2022/07/04 11:29:13;;;;;;;6.90;4.13;;;;;;;;;;5075897;28;20036;-74
2022/07/04 11:31:43;;;;;;;6.05;4.20;;;;;;;;;;5082193;28;20032;-75
2022/07/04 11:34:09;;;;;;;5.65;3.55;;;;;;;;;;5073140;28;20393;-76
2022/07/04 11:36:35;;;;;;;5.30;3.50;;;;;;;;;;5073330;28;20078;-75
2022/07/04 11:39:05;;;;;;;6.97;4.13;;;;;;;;;;5072989;28;20020;-74
2022/07/04 11:47:11;;;;;;;5.63;3.90;;;;;;;;;;5072807;28;20115;-75
2022/07/04 11:49:41;;;;;;;5.10;3.50;;;;;;;;;;5071811;28;20028;-75
2022/07/04 11:52:07;;;;;;;4.50;3.40;;;;;;;;;;5073170;28;20024;-74
2022/07/04 11:54:34;;;;;;;6.70;3.90;;;;;;;;;;5072703;28;20476;-77
2022/07/04 11:57:15;;;;;;;5.22;3.22;;;;;;;;;;5073053;28;20103;-73
2022/07/04 11:59:42;;;;;;;6.33;3.53;;;;;;;;;;5073054;28;20013;-76
2022/07/04 12:02:15;;;;;;;5.22;3.53;;;;;;;;;;5072606;28;20109;-76
2022/07/04 12:04:42;;;;;;;5.60;3.72;;;;;;;;;;5073166;28;20047;-73
2022/07/04 12:07:12;;;;;;;8.43;3.58;;;;;;;;;;5072786;28;20071;-74
2022/07/04 12:09:38;;;;;;;7.32;3.42;;;;;;;;;;5073153;28;20504;-76
2022/07/04 12:12:04;;;;;;;4.22;3.13;;;;;;;;;;5070803;28;20124;-76
2022/07/04 12:14:30;;;;;;;4.97;3.20;;;;;;;;;;5072591;28;20099;-76
2022/07/04 12:17:14;;;;;;;6.32;3.20;;;;;;;;;;5074219;28;20331;-79
2022/07/04 12:19:58;;;;;;;5.28;3.08;;;;;;;;;;5089329;28;20032;-74
2022/07/04 12:22:44;;;;;;;5.20;3.45;;;;;;;;;;5088913;28;20046;-72
2022/07/04 12:25:34;;;;;;;4.88;3.08;;;;;;;;;;5090674;28;20016;-72
2022/07/04 12:28:01;;;;;;;5.78;3.40;;;;;;;;;;5091143;28;20077;-73
2022/07/04 12:30:28;;;;;;;8.50;3.72;;;;;;;;;;5094820;28;20098;-73
2022/07/04 12:32:59;;;;;;;4.75;3.10;;;;;;;;;;5095287;28;20035;-73
2022/07/04 12:35:35;;;;;;;4.68;2.70;;;;;;;;;;5095024;28;20020;-73
2022/07/04 12:38:03;;;;;;;6.35;2.97;;;;;;;;;;5094108;28;20099;-73
2022/07/04 12:40:29;;;;;;;7.03;3.50;;;;;;;;;;5093013;28;20070;-73
2022/07/04 12:42:56;;;;;;;8.32;3.10;;;;;;;;;;5091061;28;20139;-73
2022/07/04 12:45:23;;;;;;;5.95;3.40;;;;;;;;;;5091794;28;20107;-73
2022/07/04 12:47:49;;;;;;;4.38;2.85;;;;;;;;;;5093126;28;20118;-74
2022/07/04 12:50:15;;;;;;;6.22;3.55;;;;;;;;;;5092372;28;20028;-73
2022/07/04 12:52:42;;;;;;;7.47;4.03;;;;;;;;;;5092847;28;20020;-73
2022/07/04 12:55:10;;;;;;;7.50;3.90;;;;;;;;;;5096662;28;20016;-72
2022/07/04 12:57:36;;;;;;;6.25;3.45;;;;;;;;;;5095075;28;20069;-74
2022/07/04 13:00:03;;;;;;;6.00;3.60;;;;;;;;;;5096613;28;20048;-72
2022/07/04 13:02:30;;;;;;;5.38;3.70;;;;;;;;;;5096502;28;20036;-73
2022/07/04 13:04:56;;;;;;;6.57;4.10;;;;;;;;;;5095545;28;20099;-73
2022/07/04 13:07:23;;;;;;;5.43;3.90;;;;;;;;;;5096277;28;20170;-72
2022/07/04 13:09:49;;;;;;;6.88;3.75;;;;;;;;;;5096117;28;20020;-73
2022/07/04 13:12:24;;;;;;;8.13;4.00;;;;;;;;;;5095649;28;20061;-73
2022/07/04 13:14:51;;;;;;;5.15;3.88;;;;;;;;;;5094921;28;20024;-74
2022/07/04 13:17:17;;;;;;;5.57;3.75;;;;;;;;;;5095684;28;20057;-73
2022/07/04 13:19:43;;;;;;;7.38;3.92;;;;;;;;;;5096086;28;20031;-74
2022/07/04 13:22:09;;;;;;;5.35;3.40;;;;;;;;;;5094679;28;20032;-73
2022/07/04 13:24:36;;;;;;;6.57;3.75;;;;;;;;;;5095831;28;20032;-73
2022/07/04 13:27:02;;;;;;;9.52;4.03;;;;;;;;;;5095042;28;20059;-73
2022/07/04 13:29:28;;;;;;;13.93;4.80;;;;;;;;;;5095785;28;20032;-72
2022/07/04 13:31:54;;;;;;;7.38;4.13;;;;;;;;;;5094081;28;20024;-72
2022/07/04 13:34:20;;;;;;;9.90;4.10;;;;;;;;;;5095502;28;20111;-72
2022/07/04 13:36:46;;;;;;;8.23;4.70;;;;;;;;;;5095172;28;20031;-73
2022/07/04 13:39:13;;;;;;;8.20;4.05;;;;;;;;;;5093876;28;20088;-72
2022/07/04 13:41:39;;;;;;;8.50;4.93;;;;;;;;;;5095208;28;20024;-73
2022/07/04 13:44:06;;;;;;;6.40;4.20;;;;;;;;;;5095579;28;20380;-72
2022/07/04 13:46:35;;;;;;;10.20;4.13;;;;;;;;;;5095020;28;20024;-72
2022/07/04 13:49:04;;;;;;;8.02;4.93;;;;;;;;;;5095169;28;20023;-73
2022/07/04 13:51:31;;;;;;;9.48;4.72;;;;;;;;;;5093879;28;20023;-72
2022/07/04 13:53:57;;;;;;;7.03;4.30;;;;;;;;;;5094970;28;20164;-72
2022/07/04 13:56:23;;;;;;;6.45;3.80;;;;;;;;;;5095316;28;20028;-72
2022/07/04 13:58:49;;;;;;;5.75;3.63;;;;;;;;;;5095322;28;20132;-72
2022/07/04 14:01:18;;;;;;;5.72;3.70;;;;;;;;;;5094823;28;20098;-72
2022/07/04 14:03:44;;;;;;;5.00;3.65;;;;;;;;;;5095222;28;20024;-73
2022/07/04 14:06:10;;;;;;;8.23;3.58;;;;;;;;;;5095090;28;20032;-73
2022/07/04 14:08:36;;;;;;;7.05;3.83;;;;;;;;;;5094777;28;20055;-72
2022/07/04 14:11:02;;;;;;;5.85;3.47;;;;;;;;;;5095102;28;20068;-72
2022/07/04 14:13:29;;;;;;;4.93;3.47;;;;;;;;;;5093114;28;20034;-72
2022/07/04 14:15:55;;;;;;;5.38;3.90;;;;;;;;;;5094900;28;20028;-72
2022/07/04 14:18:21;;;;;;;7.88;3.83;;;;;;;;;;5093596;28;20028;-73
2022/07/04 14:20:49;;;;;;;6.82;3.65;;;;;;;;;;5094538;28;20503;-72
2022/07/04 14:23:39;;;;;;;5.72;3.45;;;;;;;;;;5094713;28;20054;-73
2022/07/04 14:26:01;;;;;;;5.50;3.33;;;;;;;;;;5094658;28;20042;-72
2022/07/04 14:28:27;;;;;;;5.75;3.65;;;;;;;;;;5094343;28;20028;-72
2022/07/04 14:30:53;;;;;;;5.70;3.63;;;;;;;;;;5094788;28;20310;-72
2022/07/04 14:33:19;;;;;;;6.18;3.67;;;;;;;;;;5094615;28;20031;-73
2022/07/04 14:35:45;;;;;;;7.25;3.25;;;;;;;;;;5094220;28;20031;-72
2022/07/04 14:38:11;;;;;;;5.22;3.15;;;;;;;;;;5094541;28;20024;-73
2022/07/04 14:40:38;;;;;;;5.57;3.92;;;;;;;;;;5094314;28;20028;-73
2022/07/04 14:43:05;;;;;;;5.10;3.40;;;;;;;;;;5092616;28;20058;-73
2022/07/04 14:45:31;;;;;;;5.90;3.00;;;;;;;;;;5094253;28;20024;-73
2022/07/04 14:47:57;;;;;;;5.47;3.25;;;;;;;;;;5094492;28;20044;-73
2022/07/04 14:50:23;;;;;;;4.60;2.80;;;;;;;;;;5093960;28;20081;-73
2022/07/04 14:52:50;;;;;;;5.10;3.55;;;;;;;;;;5093746;28;20039;-73
2022/07/04 14:55:17;;;;;;;6.65;3.05;;;;;;;;;;5092917;28;20069;-73
2022/07/04 14:57:43;;;;;;;4.50;2.72;;;;;;;;;;5093837;28;20042;-72
2022/07/04 15:00:09;;;;;;;4.30;2.85;;;;;;;;;;5094220;28;20016;-73
2022/07/04 15:02:35;;;;;;;6.68;3.58;;;;;;;;;;5093992;28;20388;-72
2022/07/04 15:05:01;;;;;;;4.93;2.92;;;;;;;;;;5093783;28;20081;-73
2022/07/04 15:07:28;;;;;;;10.07;3.05;;;;;;;;;;5094031;28;20500;-74
2022/07/04 15:09:54;;;;;;;4.55;3.13;;;;;;;;;;5093558;28;20056;-73
2022/07/04 15:12:21;;;;;;;3.95;2.65;;;;;;;;;;5093881;28;20043;-73
2022/07/04 15:14:47;;;;;;;4.38;3.03;;;;;;;;;;5094029;28;20102;-73
2022/07/04 15:17:15;;;;;;;4.72;2.97;;;;;;;;;;5092144;28;20021;-73
2022/07/04 15:25:10;;;;;;;5.05;3.33;;;;;;;;;;5093767;28;20043;-73
2022/07/04 15:27:37;;;;;;;4.95;3.28;;;;;;;;;;5093902;28;20028;-74
2022/07/04 15:30:03;;;;;;;8.23;4.07;;;;;;;;;;5093661;28;20032;-74
2022/07/04 15:32:29;;;;;;;5.40;3.60;;;;;;;;;;5092026;28;20116;-74
2022/07/04 15:34:55;;;;;;;5.47;3.33;;;;;;;;;;5093683;28;20054;-74
2022/07/04 15:37:21;;;;;;;5.78;3.28;;;;;;;;;;5093658;28;20384;-75
2022/07/04 15:39:48;;;;;;;4.95;3.58;;;;;;;;;;5093109;28;20032;-74
2022/07/04 15:42:14;;;;;;;5.97;3.60;;;;;;;;;;5093188;28;20048;-74
2022/07/04 15:44:40;;;;;;;4.82;2.88;;;;;;;;;;5093492;28;20036;-74
2022/07/04 15:47:09;;;;;;;6.70;3.60;;;;;;;;;;5092325;28;20027;-75
2022/07/04 15:49:35;;;;;;;7.30;3.05;;;;;;;;;;5090825;28;20495;-75
2022/07/04 15:52:01;;;;;;;4.32;3.20;;;;;;;;;;5092502;28;20395;-75
2022/07/04 15:54:28;;;;;;;5.47;3.55;;;;;;;;;;5092240;28;20091;-74
2022/07/04 15:56:54;;;;;;;5.35;3.47;;;;;;;;;;5093403;28;20028;-74
2022/07/04 15:59:20;;;;;;;6.65;3.35;;;;;;;;;;5093128;28;20028;-74
2022/07/04 16:01:46;;;;;;;5.00;3.40;;;;;;;;;;5093325;28;20012;-73
2022/07/04 16:04:12;;;;;;;4.60;3.28;;;;;;;;;;5094924;28;20055;-74
2022/07/04 16:06:40;;;;;;;5.20;3.38;;;;;;;;;;5095635;28;20074;-73
2022/07/04 16:09:06;;;;;;;7.05;3.35;;;;;;;;;;5095843;28;20320;-74
2022/07/04 16:11:32;;;;;;;4.53;3.22;;;;;;;;;;5097355;28;20024;-73
2022/07/04 16:13:58;;;;;;;4.65;3.25;;;;;;;;;;5096827;28;20369;-74
2022/07/04 16:16:24;;;;;;;5.15;3.50;;;;;;;;;;5097105;28;20380;-74
2022/07/04 16:18:51;;;;;;;6.85;4.32;;;;;;;;;;5094836;28;20099;-74
2022/07/04 16:21:17;;;;;;;6.07;4.20;;;;;;;;;;5096656;28;20024;-74
2022/07/04 16:23:43;;;;;;;6.93;4.78;;;;;;;;;;5096809;28;20039;-73
2022/07/04 16:26:10;;;;;;;7.97;5.05;;;;;;;;;;5082828;28;20020;-72
2022/07/04 16:28:36;;;;;;;7.75;5.13;;;;;;;;;;5079672;28;20020;-72
2022/07/04 16:31:02;;;;;;;10.40;5.28;;;;;;;;;;5093356;28;20483;-74
2022/07/04 16:33:28;;;;;;;8.32;4.75;;;;;;;;;;5096585;28;20039;-73